sensor_id;sensor_type;location;lat;lon;timestamp;pressure;altitude;pressure_sealevel;temperature;humidity
22649;BME280;11491;41.942;24.220;2023-04-19T00:00:32;89413.63;;;7.52;94.25
22649;BME280;11491;41.942;24.220;2023-04-19T00:02:59;89406.44;;;7.53;94.52
22649;BME280;11491;41.942;24.220;2023-04-19T00:05:26;89410.06;;;7.61;94.58
22649;BME280;11491;41.942;24.220;2023-04-19T00:07:53;89413.94;;;7.63;94.38
22649;BME280;11491;41.942;24.220;2023-04-19T00:10:20;89385.81;;;7.38;94.70
22649;BME280;11491;41.942;24.220;2023-04-19T00:12:48;89412.28;;;7.59;94.43
22649;BME280;11491;41.942;24.220;2023-04-19T00:15:15;89402.31;;;7.55;94.55
22649;BME280;11491;41.942;24.220;2023-04-19T00:17:41;89408.50;;;7.60;94.29
22649;BME280;11491;41.942;24.220;2023-04-19T00:20:09;89409.19;;;7.57;93.92
22649;BME280;11491;41.942;24.220;2023-04-19T00:22:37;89399.66;;;7.55;94.23
22649;BME280;11491;41.942;24.220;2023-04-19T00:25:04;89397.84;;;7.60;94.07
22649;BME280;11491;41.942;24.220;2023-04-19T00:27:31;89394.97;;;7.65;94.08
22649;BME280;11491;41.942;24.220;2023-04-19T00:29:59;89394.09;;;7.61;93.73
22649;BME280;11491;41.942;24.220;2023-04-19T00:32:31;89393.22;;;7.57;94.12
22649;BME280;11491;41.942;24.220;2023-04-19T00:34:58;89393.97;;;7.57;94.17
22649;BME280;11491;41.942;24.220;2023-04-19T00:37:25;89400.97;;;7.62;93.99
22649;BME280;11491;41.942;24.220;2023-04-19T00:39:51;89398.75;;;7.64;93.55
22649;BME280;11491;41.942;24.220;2023-04-19T00:42:18;89395.63;;;7.62;93.34
22649;BME280;11491;41.942;24.220;2023-04-19T00:44:45;89395.84;;;7.69;93.43
22649;BME280;11491;41.942;24.220;2023-04-19T00:47:13;89395.31;;;7.63;92.96
22649;BME280;11491;41.942;24.220;2023-04-19T00:49:40;89392.97;;;7.62;92.88
22649;BME280;11491;41.942;24.220;2023-04-19T00:52:07;89394.09;;;7.61;93.56
22649;BME280;11491;41.942;24.220;2023-04-19T00:54:34;89401.41;;;7.64;93.67
22649;BME280;11491;41.942;24.220;2023-04-19T00:57:02;89397.28;;;7.66;93.60
22649;BME280;11491;41.942;24.220;2023-04-19T00:59:29;89394.97;;;7.65;94.03
22649;BME280;11491;41.942;24.220;2023-04-19T01:01:56;89396.53;;;7.66;93.84
22649;BME280;11491;41.942;24.220;2023-04-19T01:04:24;89393.63;;;7.71;93.02
22649;BME280;11491;41.942;24.220;2023-04-19T01:06:51;89386.09;;;7.73;93.14
22649;BME280;11491;41.942;24.220;2023-04-19T01:09:19;89395.06;;;7.68;93.14
22649;BME280;11491;41.942;24.220;2023-04-19T01:11:45;89387.34;;;7.63;93.18
22649;BME280;11491;41.942;24.220;2023-04-19T01:14:12;89381.91;;;7.60;93.57
22649;BME280;11491;41.942;24.220;2023-04-19T01:16:39;89389.22;;;7.63;93.40
22649;BME280;11491;41.942;24.220;2023-04-19T01:19:06;89382.34;;;7.62;93.27
22649;BME280;11491;41.942;24.220;2023-04-19T01:21:35;89386.56;;;7.63;93.08
22649;BME280;11491;41.942;24.220;2023-04-19T01:24:04;89383.66;;;7.68;92.38
22649;BME280;11491;41.942;24.220;2023-04-19T01:26:31;89381.41;;;7.70;92.46
22649;BME280;11491;41.942;24.220;2023-04-19T01:28:58;89383.66;;;7.68;92.60
22649;BME280;11491;41.942;24.220;2023-04-19T01:31:24;89378.34;;;7.68;92.67
22649;BME280;11491;41.942;24.220;2023-04-19T01:33:51;89373.66;;;7.65;92.76
22649;BME280;11491;41.942;24.220;2023-04-19T01:36:18;89372.34;;;7.71;92.48
22649;BME280;11491;41.942;24.220;2023-04-19T01:38:45;89372.53;;;7.78;90.69
22649;BME280;11491;41.942;24.220;2023-04-19T01:41:13;89360.81;;;7.67;91.37
22649;BME280;11491;41.942;24.220;2023-04-19T01:43:40;89366.13;;;7.67;91.99
22649;BME280;11491;41.942;24.220;2023-04-19T01:46:07;89365.56;;;7.73;91.09
22649;BME280;11491;41.942;24.220;2023-04-19T01:48:33;89370.97;;;7.77;90.88
22649;BME280;11491;41.942;24.220;2023-04-19T01:51:00;89364.13;;;7.76;91.15
22649;BME280;11491;41.942;24.220;2023-04-19T01:53:27;89363.66;;;7.74;91.47
22649;BME280;11491;41.942;24.220;2023-04-19T01:55:53;89361.50;;;7.64;91.90
22649;BME280;11491;41.942;24.220;2023-04-19T01:58:22;89363.72;;;7.62;92.39
22649;BME280;11491;41.942;24.220;2023-04-19T02:00:48;89352.88;;;7.54;92.79
22649;BME280;11491;41.942;24.220;2023-04-19T02:03:15;89356.56;;;7.38;92.93
22649;BME280;11491;41.942;24.220;2023-04-19T02:05:42;89354.50;;;7.31;93.57
22649;BME280;11491;41.942;24.220;2023-04-19T02:08:08;89353.41;;;7.20;94.64
22649;BME280;11491;41.942;24.220;2023-04-19T02:10:35;89356.50;;;7.22;94.32
22649;BME280;11491;41.942;24.220;2023-04-19T02:13:02;89353.19;;;7.25;94.13
22649;BME280;11491;41.942;24.220;2023-04-19T02:15:30;89352.56;;;7.16;93.56
22649;BME280;11491;41.942;24.220;2023-04-19T02:17:57;89354.09;;;7.17;93.85
22649;BME280;11491;41.942;24.220;2023-04-19T02:20:24;89361.19;;;7.00;94.69
22649;BME280;11491;41.942;24.220;2023-04-19T02:22:51;89353.56;;;6.86;95.94
22649;BME280;11491;41.942;24.220;2023-04-19T02:25:18;89355.66;;;6.93;96.22
22649;BME280;11491;41.942;24.220;2023-04-19T02:27:45;89356.09;;;7.07;96.29
22649;BME280;11491;41.942;24.220;2023-04-19T02:30:12;89352.56;;;7.16;96.14
22649;BME280;11491;41.942;24.220;2023-04-19T02:32:40;89348.22;;;7.23;94.98
22649;BME280;11491;41.942;24.220;2023-04-19T02:35:07;89352.09;;;7.26;94.39
22649;BME280;11491;41.942;24.220;2023-04-19T02:37:34;89351.66;;;7.11;94.88
22649;BME280;11491;41.942;24.220;2023-04-19T02:40:01;89345.44;;;7.07;94.85
22649;BME280;11491;41.942;24.220;2023-04-19T02:42:28;89345.00;;;7.05;95.31
22649;BME280;11491;41.942;24.220;2023-04-19T02:44:55;89336.69;;;7.19;94.58
22649;BME280;11491;41.942;24.220;2023-04-19T02:47:21;89342.00;;;7.19;94.37
22649;BME280;11491;41.942;24.220;2023-04-19T02:49:49;89334.34;;;7.18;95.15
22649;BME280;11491;41.942;24.220;2023-04-19T02:52:16;89344.31;;;7.33;94.71
22649;BME280;11491;41.942;24.220;2023-04-19T02:54:43;89339.53;;;7.39;93.85
22649;BME280;11491;41.942;24.220;2023-04-19T02:57:10;89337.19;;;7.37;93.55
22649;BME280;11491;41.942;24.220;2023-04-19T02:59:36;89329.41;;;7.44;93.10
22649;BME280;11491;41.942;24.220;2023-04-19T03:02:03;89336.28;;;7.45;92.72
22649;BME280;11491;41.942;24.220;2023-04-19T03:04:30;89330.75;;;7.50;92.39
22649;BME280;11491;41.942;24.220;2023-04-19T03:06:58;89332.56;;;7.62;91.92
22649;BME280;11491;41.942;24.220;2023-04-19T03:09:25;89333.75;;;7.65;92.10
22649;BME280;11491;41.942;24.220;2023-04-19T03:11:51;89334.88;;;7.64;92.54
22649;BME280;11491;41.942;24.220;2023-04-19T03:14:18;89331.78;;;7.62;92.45
22649;BME280;11491;41.942;24.220;2023-04-19T03:16:45;89339.13;;;7.52;92.99
22649;BME280;11491;41.942;24.220;2023-04-19T03:19:12;89322.38;;;7.24;94.70
22649;BME280;11491;41.942;24.220;2023-04-19T03:21:38;89336.97;;;7.30;95.42
22649;BME280;11491;41.942;24.220;2023-04-19T03:24:07;89327.03;;;7.27;95.64
22649;BME280;11491;41.942;24.220;2023-04-19T03:26:34;89332.09;;;7.32;95.80
22649;BME280;11491;41.942;24.220;2023-04-19T03:29:01;89328.78;;;7.35;95.45
22649;BME280;11491;41.942;24.220;2023-04-19T03:31:27;89330.41;;;7.40;95.20
22649;BME280;11491;41.942;24.220;2023-04-19T03:33:54;89343.41;;;7.41;95.42
22649;BME280;11491;41.942;24.220;2023-04-19T03:36:21;89336.50;;;7.40;95.42
22649;BME280;11491;41.942;24.220;2023-04-19T03:38:48;89342.72;;;7.44;94.68
22649;BME280;11491;41.942;24.220;2023-04-19T03:41:19;89344.06;;;7.38;94.68
22649;BME280;11491;41.942;24.220;2023-04-19T03:43:46;89339.31;;;7.31;95.25
22649;BME280;11491;41.942;24.220;2023-04-19T03:46:13;89336.13;;;7.26;95.79
22649;BME280;11491;41.942;24.220;2023-04-19T03:48:39;89337.44;;;7.32;96.37
22649;BME280;11491;41.942;24.220;2023-04-19T03:51:06;89347.16;;;7.40;96.20
22649;BME280;11491;41.942;24.220;2023-04-19T03:53:33;89338.06;;;7.41;96.31
22649;BME280;11491;41.942;24.220;2023-04-19T03:56:00;89344.38;;;7.49;95.84
22649;BME280;11491;41.942;24.220;2023-04-19T03:58:28;89342.22;;;7.54;94.94
22649;BME280;11491;41.942;24.220;2023-04-19T04:00:54;89347.66;;;7.58;94.52
22649;BME280;11491;41.942;24.220;2023-04-19T04:03:21;89350.31;;;7.58;93.78
22649;BME280;11491;41.942;24.220;2023-04-19T04:05:48;89346.22;;;7.61;92.99
22649;BME280;11491;41.942;24.220;2023-04-19T04:08:15;89345.03;;;7.46;93.47
22649;BME280;11491;41.942;24.220;2023-04-19T04:10:41;89351.59;;;7.36;94.01
22649;BME280;11491;41.942;24.220;2023-04-19T04:13:08;89349.88;;;7.28;94.02
22649;BME280;11491;41.942;24.220;2023-04-19T04:15:36;89352.56;;;7.16;94.89
22649;BME280;11491;41.942;24.220;2023-04-19T04:18:03;89351.88;;;7.19;96.02
22649;BME280;11491;41.942;24.220;2023-04-19T04:20:30;89344.09;;;7.26;95.96
22649;BME280;11491;41.942;24.220;2023-04-19T04:22:57;89345.41;;;7.32;95.24
22649;BME280;11491;41.942;24.220;2023-04-19T04:25:24;89350.94;;;7.39;94.99
22649;BME280;11491;41.942;24.220;2023-04-19T04:27:53;89341.28;;;7.34;95.16
22649;BME280;11491;41.942;24.220;2023-04-19T04:30:20;89350.94;;;7.39;94.14
22649;BME280;11491;41.942;24.220;2023-04-19T04:32:48;89344.69;;;7.47;93.91
22649;BME280;11491;41.942;24.220;2023-04-19T04:35:15;89346.69;;;7.50;93.03
22649;BME280;11491;41.942;24.220;2023-04-19T04:37:42;89350.44;;;7.49;92.91
22649;BME280;11491;41.942;24.220;2023-04-19T04:40:10;89352.19;;;7.58;93.23
22649;BME280;11491;41.942;24.220;2023-04-19T04:42:37;89359.28;;;7.66;92.44
22649;BME280;11491;41.942;24.220;2023-04-19T04:45:04;89351.06;;;7.71;92.39
22649;BME280;11491;41.942;24.220;2023-04-19T04:47:32;89359.22;;;7.78;91.52
22649;BME280;11491;41.942;24.220;2023-04-19T04:50:00;89354.16;;;7.73;90.81
22649;BME280;11491;41.942;24.220;2023-04-19T04:52:28;89357.91;;;7.72;90.28
22649;BME280;11491;41.942;24.220;2023-04-19T04:54:54;89353.47;;;7.76;90.99
22649;BME280;11491;41.942;24.220;2023-04-19T04:57:21;89354.34;;;7.80;90.57
22649;BME280;11491;41.942;24.220;2023-04-19T04:59:48;89356.31;;;7.83;91.12
22649;BME280;11491;41.942;24.220;2023-04-19T05:02:15;89356.16;;;7.92;90.57
22649;BME280;11491;41.942;24.220;2023-04-19T05:04:42;89359.06;;;7.87;90.93
22649;BME280;11491;41.942;24.220;2023-04-19T05:07:11;89363.72;;;7.90;89.87
22649;BME280;11491;41.942;24.220;2023-04-19T05:09:37;89361.97;;;7.82;89.79
22649;BME280;11491;41.942;24.220;2023-04-19T05:12:04;89355.19;;;7.84;89.83
22649;BME280;11491;41.942;24.220;2023-04-19T05:14:31;89357.41;;;7.82;89.86
22649;BME280;11491;41.942;24.220;2023-04-19T05:16:58;89358.09;;;7.51;91.86
22649;BME280;11491;41.942;24.220;2023-04-19T05:19:25;89369.31;;;7.44;93.79
22649;BME280;11491;41.942;24.220;2023-04-19T05:21:52;89368.53;;;7.44;94.01
22649;BME280;11491;41.942;24.220;2023-04-19T05:24:20;89367.84;;;7.47;94.81
22649;BME280;11491;41.942;24.220;2023-04-19T05:26:46;89358.78;;;7.48;94.48
22649;BME280;11491;41.942;24.220;2023-04-19T05:29:13;89369.72;;;7.59;94.77
22649;BME280;11491;41.942;24.220;2023-04-19T05:31:40;89371.00;;;7.65;94.41
22649;BME280;11491;41.942;24.220;2023-04-19T05:34:07;89369.91;;;7.66;94.54
22649;BME280;11491;41.942;24.220;2023-04-19T05:36:34;89379.41;;;7.79;94.97
22649;BME280;11491;41.942;24.220;2023-04-19T05:39:00;89380.28;;;7.83;94.62
22649;BME280;11491;41.942;24.220;2023-04-19T05:41:29;89366.78;;;7.76;94.22
22649;BME280;11491;41.942;24.220;2023-04-19T05:43:55;89374.34;;;7.90;94.34
22649;BME280;11491;41.942;24.220;2023-04-19T05:46:22;89372.69;;;7.97;93.44
22649;BME280;11491;41.942;24.220;2023-04-19T05:48:49;89375.34;;;7.97;92.25
22649;BME280;11491;41.942;24.220;2023-04-19T05:51:16;89377.38;;;7.88;90.85
22649;BME280;11491;41.942;24.220;2023-04-19T05:53:43;89370.47;;;7.87;91.17
22649;BME280;11491;41.942;24.220;2023-04-19T05:56:10;89362.41;;;7.84;90.16
22649;BME280;11491;41.942;24.220;2023-04-19T05:58:38;89376.69;;;7.91;90.45
22649;BME280;11491;41.942;24.220;2023-04-19T06:01:05;89372.72;;;7.85;90.74
22649;BME280;11491;41.942;24.220;2023-04-19T06:03:32;89379.78;;;7.93;91.52
22649;BME280;11491;41.942;24.220;2023-04-19T06:05:59;89378.84;;;8.02;90.80
22649;BME280;11491;41.942;24.220;2023-04-19T06:08:25;89383.44;;;8.17;90.17
22649;BME280;11491;41.942;24.220;2023-04-19T06:10:52;89374.66;;;8.01;90.03
22649;BME280;11491;41.942;24.220;2023-04-19T06:13:20;89378.59;;;8.07;90.84
22649;BME280;11491;41.942;24.220;2023-04-19T06:15:48;89371.75;;;8.06;89.99
22649;BME280;11491;41.942;24.220;2023-04-19T06:18:15;89381.13;;;7.87;88.74
22649;BME280;11491;41.942;24.220;2023-04-19T06:20:42;89375.50;;;8.05;89.05
22649;BME280;11491;41.942;24.220;2023-04-19T06:23:09;89382.44;;;7.93;88.83
22649;BME280;11491;41.942;24.220;2023-04-19T06:25:37;89384.63;;;7.75;89.46
22649;BME280;11491;41.942;24.220;2023-04-19T06:28:04;89383.03;;;7.59;90.14
22649;BME280;11491;41.942;24.220;2023-04-19T06:30:31;89384.78;;;7.54;92.52
22649;BME280;11491;41.942;24.220;2023-04-19T06:32:59;89371.44;;;7.39;92.68
22649;BME280;11491;41.942;24.220;2023-04-19T06:35:26;89384.91;;;7.58;93.23
22649;BME280;11491;41.942;24.220;2023-04-19T06:37:52;89385.88;;;7.66;91.74
22649;BME280;11491;41.942;24.220;2023-04-19T06:40:19;89387.63;;;7.74;89.51
22649;BME280;11491;41.942;24.220;2023-04-19T06:42:46;89388.00;;;7.88;88.80
22649;BME280;11491;41.942;24.220;2023-04-19T06:45:13;89391.00;;;8.15;90.87
22649;BME280;11491;41.942;24.220;2023-04-19T06:47:40;89390.44;;;8.37;90.68
22649;BME280;11491;41.942;24.220;2023-04-19T06:50:09;89397.97;;;8.48;89.27
22649;BME280;11491;41.942;24.220;2023-04-19T06:52:37;89396.00;;;8.60;88.88
22649;BME280;11491;41.942;24.220;2023-04-19T06:55:04;89402.59;;;8.67;87.51
22649;BME280;11491;41.942;24.220;2023-04-19T06:57:31;89399.53;;;8.80;86.12
22649;BME280;11491;41.942;24.220;2023-04-19T06:59:58;89404.41;;;8.78;85.52
22649;BME280;11491;41.942;24.220;2023-04-19T07:02:25;89408.66;;;8.79;84.04
22649;BME280;11491;41.942;24.220;2023-04-19T07:04:52;89366.50;;;8.69;84.06
22649;BME280;11491;41.942;24.220;2023-04-19T07:07:20;89403.13;;;9.04;84.12
22649;BME280;11491;41.942;24.220;2023-04-19T07:09:46;89401.75;;;9.10;84.82
22649;BME280;11491;41.942;24.220;2023-04-19T07:12:13;89406.13;;;8.87;81.65
22649;BME280;11491;41.942;24.220;2023-04-19T07:14:40;89409.56;;;8.71;84.72
22649;BME280;11491;41.942;24.220;2023-04-19T07:17:07;89411.53;;;8.74;83.80
22649;BME280;11491;41.942;24.220;2023-04-19T07:19:33;89415.59;;;8.68;83.84
22649;BME280;11491;41.942;24.220;2023-04-19T07:22:00;89408.69;;;8.51;85.46
22649;BME280;11491;41.942;24.220;2023-04-19T07:24:29;89403.72;;;8.50;86.59
22649;BME280;11491;41.942;24.220;2023-04-19T07:26:56;89410.53;;;8.63;85.74
22649;BME280;11491;41.942;24.220;2023-04-19T07:29:23;89403.28;;;8.48;83.16
22649;BME280;11491;41.942;24.220;2023-04-19T07:31:50;89404.84;;;8.49;82.82
22649;BME280;11491;41.942;24.220;2023-04-19T07:34:19;89416.53;;;8.60;82.94
22649;BME280;11491;41.942;24.220;2023-04-19T07:36:46;89414.97;;;8.59;81.85
22649;BME280;11491;41.942;24.220;2023-04-19T07:39:12;89416.81;;;8.55;82.68
22649;BME280;11491;41.942;24.220;2023-04-19T07:41:41;89406.53;;;8.57;82.45
22649;BME280;11491;41.942;24.220;2023-04-19T07:44:07;89411.53;;;8.74;83.44
22649;BME280;11491;41.942;24.220;2023-04-19T07:46:36;89421.03;;;8.88;83.05
22649;BME280;11491;41.942;24.220;2023-04-19T07:49:02;89428.84;;;9.12;84.10
22649;BME280;11491;41.942;24.220;2023-04-19T07:51:29;89416.69;;;9.31;81.23
22649;BME280;11491;41.942;24.220;2023-04-19T07:53:56;89425.66;;;9.58;81.40
22649;BME280;11491;41.942;24.220;2023-04-19T07:56:23;89419.38;;;9.85;80.83
22649;BME280;11491;41.942;24.220;2023-04-19T07:58:52;89427.97;;;9.95;78.01
22649;BME280;11491;41.942;24.220;2023-04-19T08:01:19;89419.47;;;10.08;79.27
22649;BME280;11491;41.942;24.220;2023-04-19T08:03:46;89423.97;;;10.24;79.06
22649;BME280;11491;41.942;24.220;2023-04-19T08:06:12;89422.16;;;10.47;78.95
22649;BME280;11491;41.942;24.220;2023-04-19T08:08:39;89420.16;;;10.64;77.33
22649;BME280;11491;41.942;24.220;2023-04-19T08:11:06;89418.88;;;10.77;75.82
22649;BME280;11491;41.942;24.220;2023-04-19T08:13:33;89408.28;;;10.84;74.03
22649;BME280;11491;41.942;24.220;2023-04-19T08:16:01;89409.78;;;10.59;73.61
22649;BME280;11491;41.942;24.220;2023-04-19T08:18:28;89414.69;;;10.56;74.82
22649;BME280;11491;41.942;24.220;2023-04-19T08:20:55;89412.78;;;10.80;73.37
22649;BME280;11491;41.942;24.220;2023-04-19T08:23:22;89412.44;;;11.05;72.35
22649;BME280;11491;41.942;24.220;2023-04-19T08:25:49;89417.31;;;11.22;73.09
22649;BME280;11491;41.942;24.220;2023-04-19T08:28:16;89414.09;;;11.13;69.83
22649;BME280;11491;41.942;24.220;2023-04-19T08:30:43;89411.78;;;11.11;70.21
22649;BME280;11491;41.942;24.220;2023-04-19T08:33:11;89409.69;;;11.24;72.60
22649;BME280;11491;41.942;24.220;2023-04-19T08:35:38;89414.03;;;11.32;66.47
22649;BME280;11491;41.942;24.220;2023-04-19T08:38:05;89410.25;;;10.64;69.78
22649;BME280;11491;41.942;24.220;2023-04-19T08:40:32;89405.53;;;10.57;71.52
22649;BME280;11491;41.942;24.220;2023-04-19T08:43:04;89401.38;;;10.60;67.98
22649;BME280;11491;41.942;24.220;2023-04-19T08:45:31;89400.16;;;10.77;70.35
22649;BME280;11491;41.942;24.220;2023-04-19T08:48:00;89392.00;;;11.16;73.78
22649;BME280;11491;41.942;24.220;2023-04-19T08:50:28;89365.34;;;11.23;70.85
22649;BME280;11491;41.942;24.220;2023-04-19T08:52:57;89392.09;;;11.50;69.44
22649;BME280;11491;41.942;24.220;2023-04-19T08:55:24;89386.50;;;11.58;68.52
22649;BME280;11491;41.942;24.220;2023-04-19T08:57:52;89383.41;;;11.56;68.67
22649;BME280;11491;41.942;24.220;2023-04-19T09:00:20;89394.16;;;11.60;64.91
22649;BME280;11491;41.942;24.220;2023-04-19T09:02:49;89382.94;;;11.24;67.88
22649;BME280;11491;41.942;24.220;2023-04-19T09:05:17;89385.41;;;11.36;68.27
22649;BME280;11491;41.942;24.220;2023-04-19T09:07:45;89390.81;;;11.40;66.37
22649;BME280;11491;41.942;24.220;2023-04-19T09:10:13;89384.91;;;11.27;66.12
22649;BME280;11491;41.942;24.220;2023-04-19T09:12:41;89393.38;;;11.06;67.94
22649;BME280;11491;41.942;24.220;2023-04-19T09:15:08;89386.34;;;10.98;68.43
22649;BME280;11491;41.942;24.220;2023-04-19T09:17:36;89375.59;;;10.94;67.94
22649;BME280;11491;41.942;24.220;2023-04-19T09:20:05;89382.94;;;11.24;69.71
22649;BME280;11491;41.942;24.220;2023-04-19T09:22:33;89380.97;;;11.48;70.40
22649;BME280;11491;41.942;24.220;2023-04-19T09:25:01;89379.66;;;11.61;72.83
22649;BME280;11491;41.942;24.220;2023-04-19T09:27:29;89386.66;;;11.69;69.37
22649;BME280;11491;41.942;24.220;2023-04-19T09:29:57;89374.97;;;11.84;72.33
22649;BME280;11491;41.942;24.220;2023-04-19T09:32:25;89377.19;;;12.05;71.19
22649;BME280;11491;41.942;24.220;2023-04-19T09:34:54;89372.13;;;12.31;69.44
22649;BME280;11491;41.942;24.220;2023-04-19T09:37:21;89368.19;;;12.21;69.13
22649;BME280;11491;41.942;24.220;2023-04-19T09:39:48;89377.06;;;12.28;69.16
22649;BME280;11491;41.942;24.220;2023-04-19T09:42:17;89368.06;;;12.44;68.87
22649;BME280;11491;41.942;24.220;2023-04-19T09:44:55;89384.06;;;12.37;66.73
22649;BME280;11491;41.942;24.220;2023-04-19T09:47:23;89384.84;;;12.07;68.90
22649;BME280;11491;41.942;24.220;2023-04-19T09:50:04;89353.78;;;11.72;71.51
22649;BME280;11491;41.942;24.220;2023-04-19T09:52:31;89385.81;;;11.65;73.35
22649;BME280;11491;41.942;24.220;2023-04-19T09:54:59;89379.25;;;11.59;74.92
22649;BME280;11491;41.942;24.220;2023-04-19T09:57:30;89383.00;;;11.54;74.93
22649;BME280;11491;41.942;24.220;2023-04-19T09:59:57;89384.06;;;11.50;76.02
22649;BME280;11491;41.942;24.220;2023-04-19T10:02:24;89383.88;;;11.35;75.93
22649;BME280;11491;41.942;24.220;2023-04-19T10:04:52;89382.63;;;11.29;76.92
22649;BME280;11491;41.942;24.220;2023-04-19T10:07:21;89383.78;;;11.28;76.23
22649;BME280;11491;41.942;24.220;2023-04-19T10:09:49;89386.16;;;11.33;75.42
22649;BME280;11491;41.942;24.220;2023-04-19T10:12:17;89392.19;;;11.30;75.59
22649;BME280;11491;41.942;24.220;2023-04-19T10:14:45;89388.63;;;11.46;76.94
22649;BME280;11491;41.942;24.220;2023-04-19T10:17:12;89381.34;;;11.73;76.00
22649;BME280;11491;41.942;24.220;2023-04-19T10:19:39;89382.59;;;12.09;76.06
22649;BME280;11491;41.942;24.220;2023-04-19T10:22:07;89381.34;;;12.33;74.74
22649;BME280;11491;41.942;24.220;2023-04-19T10:24:35;89379.66;;;12.55;72.02
22649;BME280;11491;41.942;24.220;2023-04-19T10:27:07;89374.16;;;12.82;71.81
22649;BME280;11491;41.942;24.220;2023-04-19T10:29:56;89379.84;;;13.18;71.87
22649;BME280;11491;41.942;24.220;2023-04-19T10:32:23;89374.44;;;13.58;67.51
22649;BME280;11491;41.942;24.220;2023-04-19T10:34:52;89370.81;;;13.95;69.99
22649;BME280;11491;41.942;24.220;2023-04-19T10:37:21;89366.81;;;14.44;65.97
22649;BME280;11491;41.942;24.220;2023-04-19T10:39:49;89364.47;;;14.43;64.06
22649;BME280;11491;41.942;24.220;2023-04-19T10:42:16;89363.69;;;14.32;65.37
22649;BME280;11491;41.942;24.220;2023-04-19T10:47:56;89350.69;;;14.52;62.54
22649;BME280;11491;41.942;24.220;2023-04-19T10:50:23;89353.69;;;14.29;62.70
22649;BME280;11491;41.942;24.220;2023-04-19T10:52:49;89356.63;;;13.98;62.22
22649;BME280;11491;41.942;24.220;2023-04-19T10:55:17;89353.38;;;13.64;62.84
22649;BME280;11491;41.942;24.220;2023-04-19T10:58:01;89356.84;;;13.17;66.30
22649;BME280;11491;41.942;24.220;2023-04-19T11:00:28;89355.72;;;12.77;71.20
22649;BME280;11491;41.942;24.220;2023-04-19T11:02:58;89360.16;;;12.58;73.50
22649;BME280;11491;41.942;24.220;2023-04-19T11:05:25;89359.28;;;12.47;74.49
22649;BME280;11491;41.942;24.220;2023-04-19T11:07:52;89363.09;;;12.46;74.99
22649;BME280;11491;41.942;24.220;2023-04-19T11:10:27;89365.94;;;12.26;76.42
22649;BME280;11491;41.942;24.220;2023-04-19T11:12:54;89366.09;;;12.07;77.23
22649;BME280;11491;41.942;24.220;2023-04-19T11:15:22;89362.13;;;11.94;76.06
22649;BME280;11491;41.942;24.220;2023-04-19T11:17:49;89350.19;;;11.88;78.03
22649;BME280;11491;41.942;24.220;2023-04-19T11:20:22;89364.78;;;11.90;76.04
22649;BME280;11491;41.942;24.220;2023-04-19T11:22:48;89362.22;;;11.74;75.88
22649;BME280;11491;41.942;24.220;2023-04-19T11:25:17;89364.41;;;11.65;75.46
22649;BME280;11491;41.942;24.220;2023-04-19T11:27:46;89358.97;;;11.58;75.96
22649;BME280;11491;41.942;24.220;2023-04-19T11:30:14;89375.84;;;11.62;77.74
22649;BME280;11491;41.942;24.220;2023-04-19T11:32:44;89382.31;;;11.34;77.43
22649;BME280;11491;41.942;24.220;2023-04-19T11:35:12;89379.06;;;10.72;77.80
22649;BME280;11491;41.942;24.220;2023-04-19T11:37:41;89386.25;;;9.86;80.62
22649;BME280;11491;41.942;24.220;2023-04-19T11:40:08;89389.69;;;9.16;83.84
22649;BME280;11491;41.942;24.220;2023-04-19T11:42:35;89392.78;;;9.18;86.89
22649;BME280;11491;41.942;24.220;2023-04-19T11:45:03;89401.22;;;9.20;87.54
22649;BME280;11491;41.942;24.220;2023-04-19T11:47:31;89407.16;;;8.98;87.88
22649;BME280;11491;41.942;24.220;2023-04-19T11:50:29;89410.63;;;8.38;91.83
22649;BME280;11491;41.942;24.220;2023-04-19T11:52:57;89416.28;;;8.21;93.23
22649;BME280;11491;41.942;24.220;2023-04-19T11:55:24;89422.03;;;8.23;93.37
22649;BME280;11491;41.942;24.220;2023-04-19T11:57:51;89416.53;;;8.32;95.66
22649;BME280;11491;41.942;24.220;2023-04-19T12:00:26;89413.53;;;8.33;92.60
22649;BME280;11491;41.942;24.220;2023-04-19T12:02:53;89418.00;;;8.29;90.52
22649;BME280;11491;41.942;24.220;2023-04-19T12:05:20;89418.69;;;8.26;90.90
22649;BME280;11491;41.942;24.220;2023-04-19T12:08:01;89418.00;;;8.29;91.64
22649;BME280;11491;41.942;24.220;2023-04-19T12:10:28;89413.34;;;8.26;88.81
22649;BME280;11491;41.942;24.220;2023-04-19T12:12:55;89410.25;;;8.24;88.67
22649;BME280;11491;41.942;24.220;2023-04-19T12:15:22;89411.63;;;8.18;90.73
22649;BME280;11491;41.942;24.220;2023-04-19T12:17:56;89407.25;;;8.26;90.82
22649;BME280;11491;41.942;24.220;2023-04-19T12:20:30;89401.94;;;8.26;89.06
22649;BME280;11491;41.942;24.220;2023-04-19T12:22:57;89400.09;;;8.14;89.66
22649;BME280;11491;41.942;24.220;2023-04-19T12:25:28;89397.09;;;8.15;91.58
22649;BME280;11491;41.942;24.220;2023-04-19T12:27:55;89389.25;;;8.07;92.13
22649;BME280;11491;41.942;24.220;2023-04-19T12:30:22;89386.28;;;8.08;92.32
22649;BME280;11491;41.942;24.220;2023-04-19T12:32:50;89370.78;;;7.98;88.70
22649;BME280;11491;41.942;24.220;2023-04-19T12:35:19;89372.84;;;8.05;88.85
22649;BME280;11491;41.942;24.220;2023-04-19T12:37:46;89376.31;;;8.05;90.33
22649;BME280;11491;41.942;24.220;2023-04-19T12:40:14;89380.38;;;8.15;90.38
22649;BME280;11491;41.942;24.220;2023-04-19T12:42:42;89380.78;;;8.17;86.99
22649;BME280;11491;41.942;24.220;2023-04-19T12:45:10;89376.06;;;8.26;88.25
22649;BME280;11491;41.942;24.220;2023-04-19T12:47:37;89376.06;;;8.26;87.33
22649;BME280;11491;41.942;24.220;2023-04-19T12:50:04;89374.25;;;8.43;87.67
22649;BME280;11491;41.942;24.220;2023-04-19T12:52:31;89368.84;;;8.71;87.32
22649;BME280;11491;41.942;24.220;2023-04-19T12:54:58;89370.44;;;9.07;87.73
22649;BME280;11491;41.942;24.220;2023-04-19T12:57:25;89369.28;;;9.59;90.14
22649;BME280;11491;41.942;24.220;2023-04-19T12:59:53;89370.00;;;10.34;87.24
22649;BME280;11491;41.942;24.220;2023-04-19T13:02:19;89373.00;;;10.75;81.55